createdAt,value
2022-08-28T00:02:07.491Z,76.89
2022-08-28T00:04:35.087Z,76.92
2022-08-28T00:07:01.731Z,76.53
2022-08-28T00:09:27.605Z,77.19
2022-08-28T00:11:53.832Z,76.90
2022-08-28T00:14:21.203Z,76.92
2022-08-28T00:16:48.297Z,76.85
2022-08-28T00:19:15.894Z,76.85
2022-08-28T00:21:41.877Z,76.86
2022-08-28T00:24:08.293Z,76.24
2022-08-28T00:26:52.931Z,76.91
2022-08-28T00:29:18.743Z,77.15
2022-08-28T00:31:44.730Z,77.56
2022-08-28T00:34:10.695Z,77.50
2022-08-28T00:36:37.989Z,77.83
2022-08-28T00:39:05.263Z,77.34
2022-08-28T00:41:34.502Z,77.39
2022-08-28T00:44:28.663Z,77.78
2022-08-28T00:46:57.246Z,78.22
2022-08-28T00:49:27.705Z,77.75
2022-08-28T00:52:08.228Z,77.17
2022-08-28T00:54:41.706Z,77.43
2022-08-28T00:57:33.649Z,77.72
2022-08-28T00:59:59.722Z,77.58
2022-08-28T01:02:26.702Z,77.40
2022-08-28T01:04:53.988Z,78.26
2022-08-28T01:07:22.412Z,77.96
2022-08-28T01:09:52.767Z,77.56
2022-08-28T01:12:25.693Z,78.66
2022-08-28T01:14:57.760Z,78.98
2022-08-28T01:17:27.755Z,79.38
2022-08-28T01:20:00.191Z,78.72
2022-08-28T01:22:48.384Z,78.91
2022-08-28T01:25:18.455Z,78.63
2022-08-28T01:27:44.594Z,78.21
2022-08-28T01:30:14.144Z,78.88
2022-08-28T01:32:50.949Z,79.37
2022-08-28T01:35:22.057Z,79.26
2022-08-28T01:37:48.123Z,79.45
2022-08-28T01:40:19.539Z,78.56
2022-08-28T01:42:45.635Z,79.65
2022-08-28T01:45:17.693Z,79.04
2022-08-28T01:47:44.763Z,79.26
2022-08-28T01:50:14.165Z,79.84
2022-08-28T01:52:40.955Z,80.88
2022-08-28T01:55:08.010Z,80.48
2022-08-28T01:57:34.628Z,80.51
2022-08-28T02:00:00.861Z,81.05
2022-08-28T02:02:28.517Z,81.30
2022-08-28T02:04:54.309Z,81.85
2022-08-28T02:07:20.149Z,80.70
2022-08-28T02:09:46.253Z,80.11
2022-08-28T02:12:12.041Z,79.38
2022-08-28T02:14:38.126Z,79.53
2022-08-28T02:17:04.067Z,78.00
2022-08-28T02:19:31.257Z,77.81
2022-08-28T02:21:57.087Z,78.07
2022-08-28T02:24:23.031Z,77.32
2022-08-28T02:26:48.873Z,78.01
2022-08-28T02:29:14.709Z,78.84
2022-08-28T02:31:40.501Z,78.38
2022-08-28T02:34:06.405Z,78.69
2022-08-28T02:36:33.052Z,78.27
2022-08-28T02:38:58.977Z,78.40
2022-08-28T02:41:25.523Z,78.93
2022-08-28T02:43:51.599Z,79.09
2022-08-28T02:46:17.527Z,78.41
2022-08-28T02:48:44.021Z,78.12
2022-08-28T02:51:12.568Z,78.93
2022-08-28T02:53:39.938Z,78.50
2022-08-28T02:56:06.886Z,78.26
2022-08-28T02:58:33.866Z,77.79
2022-08-28T03:01:01.172Z,77.65
2022-08-28T03:03:30.393Z,78.11
2022-08-28T03:05:57.788Z,79.18
2022-08-28T03:08:27.292Z,79.08
2022-08-28T03:10:53.450Z,78.78
2022-08-28T03:13:23.123Z,78.77
2022-08-28T03:15:55.947Z,79.18
2022-08-28T03:18:23.687Z,78.62
2022-08-28T03:20:49.524Z,79.08
2022-08-28T03:23:27.533Z,78.71
2022-08-28T03:26:00.140Z,79.45
2022-08-28T03:28:29.983Z,79.48
2022-08-28T03:30:57.012Z,79.78
2022-08-28T03:33:25.537Z,80.58
2022-08-28T03:35:52.075Z,81.02
2022-08-28T03:38:18.927Z,81.23
2022-08-28T03:40:46.476Z,80.91
2022-08-28T03:43:15.012Z,80.39
2022-08-28T03:45:41.580Z,81.37
2022-08-28T03:48:07.861Z,82.00
2022-08-28T03:50:34.364Z,82.59
2022-08-28T03:53:00.189Z,82.37
2022-08-28T03:55:26.164Z,81.95
2022-08-28T03:57:52.164Z,81.86
2022-08-28T04:00:19.648Z,84.09
2022-08-28T04:02:45.598Z,82.99
2022-08-28T04:05:12.212Z,82.42
2022-08-28T04:07:38.784Z,82.54
2022-08-28T04:10:05.228Z,82.98
2022-08-28T04:12:32.847Z,84.21
2022-08-28T04:15:01.385Z,83.63
2022-08-28T04:17:27.272Z,83.95
2022-08-28T04:19:53.542Z,84.70
2022-08-28T04:22:20.233Z,85.79
2022-08-28T04:24:49.700Z,86.34
2022-08-28T04:27:15.468Z,86.77
2022-08-28T04:29:41.311Z,87.36
2022-08-28T04:32:07.248Z,87.39
2022-08-28T04:34:33.085Z,87.46
2022-08-28T04:36:58.922Z,87.34
2022-08-28T04:39:24.697Z,88.20
2022-08-28T04:41:50.544Z,87.91
2022-08-28T04:44:16.478Z,87.88
2022-08-28T04:46:42.704Z,87.88
2022-08-28T04:49:08.574Z,87.39
2022-08-28T04:51:36.840Z,85.25
2022-08-28T04:54:04.835Z,85.51
2022-08-28T04:56:30.909Z,86.11
2022-08-28T04:58:56.835Z,85.78
2022-08-28T05:01:24.401Z,86.26
2022-08-28T05:03:56.743Z,86.24
2022-08-28T05:06:26.061Z,87.25
2022-08-28T05:08:53.293Z,86.13
2022-08-28T05:11:33.417Z,86.15
2022-08-28T05:14:05.014Z,84.69
2022-08-28T05:16:32.138Z,85.36
2022-08-28T05:19:02.568Z,85.64
2022-08-28T05:21:28.397Z,85.77
2022-08-28T05:23:56.648Z,86.30
2022-08-28T05:26:22.849Z,84.75
2022-08-28T05:28:54.369Z,85.61
2022-08-28T05:31:21.863Z,85.93
2022-08-28T05:33:49.127Z,86.17
2022-08-28T05:36:16.921Z,85.79
2022-08-28T05:38:43.608Z,86.30
2022-08-28T05:41:09.409Z,86.91
2022-08-28T05:43:35.987Z,87.20
2022-08-28T05:46:06.797Z,86.69
2022-08-28T05:48:37.099Z,86.58
2022-08-28T05:51:07.756Z,87.34
2022-08-28T05:53:36.827Z,86.77
2022-08-28T05:56:04.389Z,85.99
2022-08-28T05:58:31.208Z,86.39
2022-08-28T06:01:08.998Z,87.19
2022-08-28T06:03:36.873Z,85.84
2022-08-28T06:06:03.596Z,83.70
2022-08-28T06:08:30.948Z,82.88
2022-08-28T06:10:57.757Z,83.56
2022-08-28T06:13:24.676Z,82.75
2022-08-28T06:15:50.662Z,82.41
2022-08-28T06:18:16.945Z,82.75
2022-08-28T06:20:44.932Z,83.03
2022-08-28T06:23:14.637Z,83.08
2022-08-28T06:25:48.387Z,82.75
2022-08-28T06:28:18.191Z,84.00
2022-08-28T06:31:08.946Z,83.81
2022-08-28T06:33:30.969Z,82.59
2022-08-28T06:35:56.852Z,84.73
2022-08-28T06:38:24.994Z,85.03
2022-08-28T06:40:53.353Z,84.26
2022-08-28T06:43:22.417Z,83.45
2022-08-28T06:45:51.180Z,83.79
2022-08-28T06:48:18.957Z,83.31
2022-08-28T06:50:48.893Z,83.05
2022-08-28T06:53:17.918Z,83.14
2022-08-28T06:55:43.965Z,83.26
2022-08-28T06:58:11.958Z,84.12
2022-08-28T07:00:39.648Z,83.96
2022-08-28T07:03:05.717Z,83.22
2022-08-28T07:05:33.286Z,83.84
2022-08-28T07:07:59.393Z,84.08
2022-08-28T07:10:28.678Z,82.32
2022-08-28T07:12:54.632Z,82.46
2022-08-28T07:15:20.773Z,84.06
2022-08-28T07:17:46.707Z,84.79
2022-08-28T07:20:12.842Z,83.64
2022-08-28T07:22:40.276Z,83.42
2022-08-28T07:25:08.397Z,83.33
2022-08-28T07:27:34.260Z,82.79
2022-08-28T07:30:01.289Z,81.56
2022-08-28T07:32:28.201Z,81.50
2022-08-28T07:34:56.372Z,80.91
2022-08-28T07:37:22.173Z,79.92
2022-08-28T07:39:48.906Z,79.52
2022-08-28T07:42:35.778Z,78.74
2022-08-28T07:45:02.128Z,78.86
2022-08-28T07:47:31.261Z,78.37
2022-08-28T07:49:59.935Z,78.39
2022-08-28T07:52:27.260Z,78.29
2022-08-28T07:54:54.132Z,79.18
2022-08-28T07:57:20.560Z,78.57
2022-08-28T07:59:48.851Z,78.97
2022-08-28T08:02:15.714Z,78.40
2022-08-28T08:04:42.238Z,78.50
2022-08-28T08:07:08.966Z,77.83
2022-08-28T08:09:42.975Z,78.10
2022-08-28T08:12:11.490Z,79.33
2022-08-28T08:14:38.713Z,78.83
2022-08-28T08:17:05.215Z,77.77
2022-08-28T08:19:33.909Z,77.63
2022-08-28T08:22:00.528Z,76.37
2022-08-28T08:24:27.766Z,75.68
2022-08-28T08:26:59.927Z,74.64
2022-08-28T08:29:32.462Z,74.49
2022-08-28T08:32:04.578Z,74.27
2022-08-28T08:34:32.295Z,74.42
2022-08-28T08:36:58.140Z,74.36
2022-08-28T08:39:24.045Z,74.42
2022-08-28T08:41:54.744Z,74.67
2022-08-28T08:44:35.966Z,72.38
2022-08-28T08:47:14.545Z,72.30
2022-08-28T08:49:55.087Z,72.37
2022-08-28T08:52:44.194Z,71.58
2022-08-28T08:55:22.603Z,71.07
2022-08-28T08:58:13.221Z,71.05
2022-08-28T09:00:51.540Z,70.88
2022-08-28T09:03:25.581Z,70.37
2022-08-28T09:05:57.441Z,70.45
2022-08-28T09:08:34.408Z,69.38
2022-08-28T09:11:06.328Z,69.75
2022-08-28T09:14:04.354Z,69.50
2022-08-28T09:16:34.860Z,69.05
2022-08-28T09:19:01.001Z,68.70
2022-08-28T09:21:31.167Z,69.34
2022-08-28T09:24:05.533Z,69.36
2022-08-28T09:26:32.198Z,68.67
2022-08-28T09:29:06.292Z,68.84
2022-08-28T09:31:41.148Z,68.91
2022-08-28T09:34:23.477Z,67.76
2022-08-28T09:36:50.613Z,65.75
2022-08-28T09:39:26.732Z,65.56
2022-08-28T09:42:32.832Z,65.56
2022-08-28T09:45:20.412Z,64.91
2022-08-28T09:47:53.227Z,65.00
2022-08-28T09:50:31.339Z,65.12
2022-08-28T09:53:19.792Z,64.10
2022-08-28T09:56:04.036Z,63.91
2022-08-28T09:58:49.040Z,63.42
2022-08-28T10:01:22.557Z,62.33
2022-08-28T10:03:55.357Z,61.80
2022-08-28T10:06:27.538Z,60.74
2022-08-28T10:09:25.725Z,59.87
2022-08-28T10:12:19.396Z,58.83
2022-08-28T10:15:02.435Z,58.46
2022-08-28T10:17:28.584Z,58.62
2022-08-28T10:20:14.846Z,57.81
2022-08-28T10:23:29.801Z,56.93
2022-08-28T10:26:40.527Z,56.64
2022-08-28T10:29:24.484Z,54.82
2022-08-28T10:32:02.401Z,53.65
2022-08-28T10:35:08.097Z,53.32
2022-08-28T10:37:52.184Z,52.66
2022-08-28T10:40:25.692Z,53.17
2022-08-28T10:43:14.223Z,51.99
2022-08-28T10:45:40.996Z,52.02
2022-08-28T10:48:16.834Z,51.64
2022-08-28T10:50:54.181Z,52.27
2022-08-28T10:53:27.235Z,51.17
2022-08-28T10:56:02.789Z,50.86
2022-08-28T10:58:31.358Z,49.99
2022-08-28T11:01:06.024Z,50.16
2022-08-28T11:03:45.856Z,51.08
2022-08-28T11:06:33.286Z,49.79
2022-08-28T11:09:22.604Z,49.16
2022-08-28T11:11:50.347Z,49.29
2022-08-28T11:14:48.407Z,48.69
2022-08-28T11:17:24.592Z,48.22
2022-08-28T11:19:56.152Z,46.13
2022-08-28T11:22:41.031Z,45.87
2022-08-28T11:25:26.591Z,44.44
2022-08-28T11:28:21.765Z,44.08
2022-08-28T11:31:08.601Z,42.09
2022-08-28T11:33:54.799Z,41.11
2022-08-28T11:36:20.836Z,39.88
2022-08-28T11:38:56.822Z,38.90
2022-08-28T11:41:28.590Z,38.54
2022-08-28T11:44:03.680Z,38.54
2022-08-28T11:46:34.560Z,37.84
2022-08-28T11:49:26.965Z,38.22
2022-08-28T11:52:20.003Z,37.17
2022-08-28T11:54:59.424Z,36.32
2022-08-28T11:57:46.231Z,36.77
2022-08-28T12:00:45.628Z,36.75
2022-08-28T12:03:53.502Z,37.77
2022-08-28T12:06:46.850Z,37.58
2022-08-28T12:09:38.925Z,39.06
2022-08-28T12:12:37.009Z,37.43
2022-08-28T12:15:08.074Z,36.73
2022-08-28T12:17:44.231Z,35.25
2022-08-28T12:20:20.557Z,34.69
2022-08-28T12:22:53.652Z,34.14
2022-08-28T12:25:41.474Z,34.51
2022-08-28T12:28:21.863Z,34.81
2022-08-28T12:30:58.757Z,35.54
2022-08-28T12:33:31.297Z,36.56
2022-08-28T12:36:05.515Z,34.90
2022-08-28T12:38:33.931Z,35.32
2022-08-28T12:41:02.039Z,34.73
2022-08-28T12:43:30.682Z,33.83
2022-08-28T12:45:58.840Z,33.89
2022-08-28T12:48:31.862Z,32.42
2022-08-28T12:51:00.879Z,33.19
2022-08-28T12:53:42.034Z,33.91
2022-08-28T12:56:14.933Z,33.75
2022-08-28T12:58:42.316Z,33.99
2022-08-28T13:01:14.364Z,32.80
2022-08-28T13:03:59.650Z,33.79
2022-08-28T13:06:27.016Z,34.23
2022-08-28T13:09:00.820Z,33.30
2022-08-28T13:11:39.045Z,33.91
2022-08-28T13:14:07.865Z,33.85
2022-08-28T13:16:42.943Z,33.00
2022-08-28T13:19:12.222Z,33.40
2022-08-28T13:21:47.002Z,32.39
2022-08-28T13:24:22.245Z,32.17
2022-08-28T13:26:58.511Z,33.15
2022-08-28T13:29:24.545Z,33.35
2022-08-28T13:32:00.155Z,33.52
2022-08-28T13:34:31.454Z,33.74
2022-08-28T13:36:59.171Z,33.42
2022-08-28T13:39:27.562Z,33.60
2022-08-28T13:41:57.635Z,33.20
2022-08-28T13:44:36.040Z,33.26
2022-08-28T13:47:06.165Z,33.30
2022-08-28T13:49:33.379Z,33.12
2022-08-28T13:52:01.685Z,33.16
2022-08-28T13:54:29.463Z,33.82
2022-08-28T13:56:57.570Z,33.51
2022-08-28T13:59:24.058Z,33.65
2022-08-28T14:02:12.690Z,33.72
2022-08-28T14:04:39.423Z,33.57
2022-08-28T14:07:07.233Z,33.05
2022-08-28T14:09:34.631Z,32.66
2022-08-28T14:12:01.838Z,32.92
2022-08-28T14:14:28.180Z,33.09
2022-08-28T14:16:55.243Z,33.10
2022-08-28T14:19:21.659Z,31.50
2022-08-28T14:21:47.811Z,32.34
2022-08-28T14:24:13.961Z,32.72
2022-08-28T14:26:39.952Z,32.45
2022-08-28T14:29:08.961Z,32.47
2022-08-28T14:31:36.107Z,32.42
2022-08-28T14:34:04.133Z,33.13
2022-08-28T14:36:31.231Z,32.70
2022-08-28T14:39:04.020Z,32.79
2022-08-28T14:41:32.024Z,32.75
2022-08-28T14:43:58.221Z,33.09
2022-08-28T14:46:27.838Z,33.54
2022-08-28T14:48:59.536Z,32.85
2022-08-28T14:51:26.241Z,33.93
2022-08-28T14:53:52.581Z,33.87
2022-08-28T14:56:20.520Z,33.66
2022-08-28T14:58:46.513Z,33.58
2022-08-28T15:01:22.707Z,33.55
2022-08-28T15:03:48.948Z,33.59
2022-08-28T15:06:15.487Z,34.27
2022-08-28T15:08:41.494Z,33.40
2022-08-28T15:11:10.301Z,33.24
2022-08-28T15:13:37.198Z,33.32
2022-08-28T15:16:14.638Z,33.26
2022-08-28T15:18:43.666Z,33.73
2022-08-28T15:21:20.791Z,33.09
2022-08-28T15:23:51.435Z,33.03
2022-08-28T15:26:18.766Z,32.35
2022-08-28T15:28:45.283Z,31.89
2022-08-28T15:31:11.611Z,32.76
2022-08-28T15:33:40.127Z,32.31
2022-08-28T15:36:08.937Z,32.40
2022-08-28T15:38:53.325Z,32.32
2022-08-28T15:41:24.491Z,33.12
2022-08-28T15:43:53.019Z,33.09
2022-08-28T15:46:19.340Z,33.27
2022-08-28T15:48:47.527Z,32.98
2022-08-28T15:51:14.830Z,33.55
2022-08-28T15:53:41.444Z,33.42
2022-08-28T15:56:08.364Z,33.57
2022-08-28T15:58:35.370Z,33.28
2022-08-28T16:01:03.240Z,32.80
2022-08-28T16:03:29.136Z,33.38
2022-08-28T16:05:55.302Z,32.88
2022-08-28T16:08:21.453Z,32.88
2022-08-28T16:10:49.126Z,32.99
2022-08-28T16:13:16.630Z,33.45
2022-08-28T16:15:43.787Z,33.32
2022-08-28T16:18:12.158Z,33.33
2022-08-28T16:20:42.615Z,33.18
2022-08-28T16:23:10.120Z,34.03
2022-08-28T16:25:36.136Z,33.81
2022-08-28T16:28:03.172Z,33.00
2022-08-28T16:30:29.149Z,33.64
2022-08-28T16:32:55.083Z,33.39
2022-08-28T16:35:21.629Z,33.14
2022-08-28T16:37:47.711Z,33.99
2022-08-28T16:40:14.860Z,34.64
2022-08-28T16:42:41.306Z,34.20
2022-08-28T16:45:09.121Z,34.78
2022-08-28T16:47:37.230Z,35.17
2022-08-28T16:50:12.263Z,35.57
2022-08-28T16:52:38.303Z,34.90
2022-08-28T16:55:06.767Z,35.52
2022-08-28T16:57:33.426Z,35.52
2022-08-28T16:59:59.731Z,35.22
2022-08-28T17:02:26.876Z,35.05
2022-08-28T17:04:55.252Z,35.00
2022-08-28T17:07:21.484Z,35.33
2022-08-28T17:09:47.526Z,36.39
2022-08-28T17:12:13.741Z,36.28
2022-08-28T17:14:41.233Z,36.46
2022-08-28T17:17:07.156Z,36.63
2022-08-28T17:19:33.132Z,37.02
2022-08-28T17:22:17.748Z,37.80
2022-08-28T17:24:47.067Z,38.65
2022-08-28T17:27:16.740Z,39.49
2022-08-28T17:29:48.594Z,39.10
2022-08-28T17:32:14.519Z,39.96
2022-08-28T17:34:40.589Z,39.48
2022-08-28T17:37:06.565Z,39.71
2022-08-28T17:39:32.481Z,40.00
2022-08-28T17:41:59.227Z,40.25
2022-08-28T17:44:25.338Z,40.56
2022-08-28T17:46:51.236Z,41.09
2022-08-28T17:49:17.709Z,41.17
2022-08-28T17:51:44.572Z,40.92
2022-08-28T17:54:20.663Z,40.56
2022-08-28T17:56:47.176Z,41.74
2022-08-28T17:59:13.893Z,42.50
2022-08-28T18:01:41.237Z,42.96
2022-08-28T18:04:08.119Z,42.65
2022-08-28T18:06:34.397Z,41.47
2022-08-28T18:09:00.760Z,43.88
2022-08-28T18:11:27.332Z,44.37
2022-08-28T18:13:53.484Z,43.77
2022-08-28T18:16:19.508Z,44.30
2022-08-28T18:18:45.394Z,44.36
2022-08-28T18:21:12.571Z,44.81
2022-08-28T18:23:39.704Z,44.22
2022-08-28T18:26:07.359Z,45.04
2022-08-28T18:28:33.354Z,45.60
2022-08-28T18:31:00.510Z,47.05
2022-08-28T18:33:26.989Z,46.22
2022-08-28T18:35:53.513Z,44.68
2022-08-28T18:38:22.180Z,44.64
2022-08-28T18:40:48.589Z,45.05
2022-08-28T18:43:16.526Z,47.75
2022-08-28T18:45:42.419Z,47.42
2022-08-28T18:48:08.383Z,46.83
2022-08-28T18:50:34.854Z,48.40
2022-08-28T18:53:01.513Z,47.47
2022-08-28T18:55:30.350Z,47.46
2022-08-28T18:57:59.567Z,47.16
2022-08-28T19:00:26.802Z,49.44
2022-08-28T19:02:53.655Z,49.50
2022-08-28T19:05:20.610Z,48.28
2022-08-28T19:07:47.228Z,48.57
2022-08-28T19:10:32.007Z,47.52
2022-08-28T19:13:00.240Z,48.53
2022-08-28T19:15:26.193Z,47.61
2022-08-28T19:17:52.061Z,48.64
2022-08-28T19:20:19.713Z,49.22
2022-08-28T19:22:47.929Z,48.61
2022-08-28T19:25:22.386Z,50.03
2022-08-28T19:27:54.700Z,50.48
2022-08-28T19:30:25.608Z,51.23
2022-08-28T19:32:51.575Z,51.51
2022-08-28T19:35:17.716Z,49.97
2022-08-28T19:37:44.223Z,50.35
2022-08-28T19:40:12.231Z,50.67
2022-08-28T19:42:38.341Z,51.74
2022-08-28T19:45:09.949Z,49.92
2022-08-28T19:47:35.859Z,49.15
2022-08-28T19:50:03.841Z,49.34
2022-08-28T19:52:29.879Z,50.19
2022-08-28T19:54:55.811Z,50.52
2022-08-28T19:57:21.699Z,49.97
2022-08-28T19:59:48.393Z,49.79
2022-08-28T20:02:14.347Z,50.70
2022-08-28T20:04:40.320Z,51.42
2022-08-28T20:07:06.224Z,51.13
2022-08-28T20:09:32.329Z,50.40
2022-08-28T20:12:00.044Z,50.91
2022-08-28T20:14:26.305Z,50.81
2022-08-28T20:16:53.709Z,50.98
2022-08-28T20:19:20.310Z,50.34
2022-08-28T20:21:49.254Z,50.82
2022-08-28T20:24:22.907Z,50.18
2022-08-28T20:26:49.705Z,51.29
2022-08-28T20:29:15.998Z,51.80
2022-08-28T20:31:44.621Z,50.96
2022-08-28T20:34:11.574Z,51.61
2022-08-28T20:36:37.993Z,51.41
2022-08-28T20:39:06.503Z,52.40
2022-08-28T20:41:33.564Z,51.58
2022-08-28T20:44:04.160Z,51.94
2022-08-28T20:46:31.507Z,52.67
2022-08-28T20:48:59.031Z,52.52
2022-08-28T20:51:45.120Z,52.11
2022-08-28T20:54:11.310Z,51.97
2022-08-28T20:56:37.391Z,52.05
2022-08-28T20:59:03.661Z,51.67
2022-08-28T21:01:29.624Z,52.11
2022-08-28T21:03:55.536Z,52.67
2022-08-28T21:06:21.407Z,52.48
2022-08-28T21:08:49.461Z,53.27
2022-08-28T21:11:18.598Z,53.50
2022-08-28T21:13:44.493Z,54.22
2022-08-28T21:16:10.412Z,53.64
2022-08-28T21:18:36.366Z,54.08
2022-08-28T21:21:05.920Z,54.43
2022-08-28T21:23:32.401Z,55.11
2022-08-28T21:25:58.905Z,54.27
2022-08-28T21:28:25.273Z,55.39
2022-08-28T21:30:53.271Z,55.50
2022-08-28T21:33:20.048Z,55.22
2022-08-28T21:35:45.989Z,55.69
2022-08-28T21:38:11.910Z,55.77
2022-08-28T21:40:39.952Z,56.20
2022-08-28T21:43:06.247Z,56.80
2022-08-28T21:45:32.792Z,57.23
2022-08-28T21:47:58.863Z,57.09
2022-08-28T21:50:28.377Z,57.74
2022-08-28T21:52:55.449Z,58.88
2022-08-28T21:55:22.110Z,58.92
2022-08-28T21:57:48.302Z,59.61
2022-08-28T22:00:19.839Z,59.25
2022-08-28T22:02:46.745Z,59.95
2022-08-28T22:05:13.156Z,60.40
2022-08-28T22:07:39.705Z,60.00
2022-08-28T22:10:08.068Z,59.80
2022-08-28T22:12:34.057Z,60.62
2022-08-28T22:14:59.959Z,60.84
2022-08-28T22:17:25.912Z,60.75
2022-08-28T22:19:52.069Z,61.42
2022-08-28T22:22:36.788Z,61.39
2022-08-28T22:25:03.875Z,61.65
2022-08-28T22:27:31.199Z,61.45
2022-08-28T22:29:57.642Z,62.04
2022-08-28T22:32:26.012Z,61.96
2022-08-28T22:34:53.432Z,62.69
2022-08-28T22:37:19.482Z,63.63
2022-08-28T22:39:45.318Z,63.17
2022-08-28T22:42:11.143Z,62.92
2022-08-28T22:44:37.743Z,63.56
2022-08-28T22:47:04.519Z,63.78
2022-08-28T22:49:30.417Z,64.61
2022-08-28T22:51:56.646Z,64.80
2022-08-28T22:54:22.548Z,64.71
2022-08-28T22:56:48.463Z,64.16
2022-08-28T22:59:14.492Z,64.75
2022-08-28T23:01:42.046Z,64.34
2022-08-28T23:04:09.611Z,65.38
2022-08-28T23:06:38.958Z,64.67
2022-08-28T23:09:06.630Z,65.58
2022-08-28T23:11:34.455Z,65.63
2022-08-28T23:14:00.692Z,64.76
2022-08-28T23:16:26.698Z,65.78
2022-08-28T23:19:08.866Z,65.56
2022-08-28T23:21:36.020Z,66.63
2022-08-28T23:24:06.845Z,68.18
2022-08-28T23:26:33.207Z,68.11
2022-08-28T23:28:59.365Z,68.41
2022-08-28T23:31:25.474Z,68.41
2022-08-28T23:33:51.433Z,68.39
2022-08-28T23:36:18.161Z,68.44
2022-08-28T23:38:44.397Z,68.63
2022-08-28T23:41:11.303Z,68.50
2022-08-28T23:43:37.540Z,67.57
2022-08-28T23:46:04.289Z,67.50
2022-08-28T23:48:31.396Z,67.52
2022-08-28T23:50:58.296Z,67.02
2022-08-28T23:53:25.026Z,67.54
2022-08-28T23:55:50.859Z,68.23
2022-08-28T23:58:17.648Z,68.45
